Time;durP1;ratioP1;P1;durP2;ratioP2;P2;SDS_P1;SDS_P2;PMS_P1;PMS_P2;Temp;Humidity;BMP_temperature;BMP_pressure;BME280_temperature;BME280_humidity;BME280_pressure;Samples;Min_cycle;Max_cycle;Signal;HPM_P1;HPM_P2
2022/09/01 00:01:29;;;;;;;9.50;6.43;;;21.60;99.90;;;;;;4915237;29;20111;-82
2022/09/01 00:04:01;;;;;;;9.40;6.22;;;21.70;99.90;;;;;;4914990;29;20032;-82
2022/09/01 00:06:28;;;;;;;14.10;6.93;;;21.70;99.90;;;;;;4915164;29;20025;-83
2022/09/01 00:08:57;;;;;;;11.27;6.55;;;21.60;99.90;;;;;;4914938;29;20027;-82
2022/09/01 00:11:24;;;;;;;10.52;6.38;;;21.60;99.90;;;;;;4915125;29;20020;-82
2022/09/01 00:13:50;;;;;;;12.85;7.00;;;21.50;99.90;;;;;;4915065;29;20052;-82
2022/09/01 00:16:17;;;;;;;11.35;7.00;;;21.50;99.90;;;;;;4914948;29;20051;-82
2022/09/01 00:18:45;;;;;;;10.90;6.75;;;21.50;99.90;;;;;;4915301;29;20024;-82
2022/09/01 00:21:12;;;;;;;8.02;6.30;;;21.60;99.90;;;;;;4915076;29;20048;-82
2022/09/01 00:23:37;;;;;;;11.23;6.80;;;21.60;99.90;;;;;;4914806;29;20449;-82
2022/09/01 00:26:03;;;;;;;11.02;6.82;;;21.60;99.90;;;;;;4914397;29;20048;-82
2022/09/01 00:28:32;;;;;;;10.20;6.15;;;21.60;99.90;;;;;;4914763;29;20031;-82
2022/09/01 00:30:58;;;;;;;12.20;6.75;;;21.60;99.90;;;;;;4915090;29;20510;-82
2022/09/01 00:33:24;;;;;;;10.95;6.60;;;21.60;99.90;;;;;;4914992;29;20048;-82
2022/09/01 00:35:49;;;;;;;14.30;7.00;;;21.70;99.90;;;;;;4914516;29;20029;-82
2022/09/01 00:38:15;;;;;;;11.25;6.85;;;21.70;99.90;;;;;;4914638;29;20028;-82
2022/09/01 00:40:41;;;;;;;12.20;6.60;;;21.60;99.90;;;;;;4914388;29;20458;-82
2022/09/01 00:43:45;;;;;;;10.98;6.35;;;21.70;99.90;;;;;;4914433;29;20028;-82
2022/09/01 00:46:22;;;;;;;9.18;6.43;;;21.60;99.90;;;;;;4914248;29;20374;-82
2022/09/01 00:49:00;;;;;;;12.07;6.40;;;21.60;99.90;;;;;;4914350;29;20434;-82
2022/09/01 00:51:27;;;;;;;9.82;6.38;;;21.60;99.90;;;;;;4914239;29;20103;-82
2022/09/01 00:53:54;;;;;;;11.00;6.07;;;21.60;99.90;;;;;;4908447;29;20111;-82
2022/09/01 00:56:21;;;;;;;11.68;6.55;;;21.60;99.90;;;;;;4908218;29;20301;-83
2022/09/01 00:58:47;;;;;;;11.10;6.40;;;21.60;99.90;;;;;;4914104;29;20029;-83
2022/09/01 01:01:13;;;;;;;10.90;6.32;;;21.50;99.90;;;;;;4914184;29;20024;-82
2022/09/01 01:03:43;;;;;;;7.00;6.00;;;21.50;99.90;;;;;;4914188;29;20093;-82
2022/09/01 01:06:09;;;;;;;9.05;6.32;;;21.50;99.90;;;;;;4913916;29;20497;-81
2022/09/01 01:08:38;;;;;;;10.88;6.43;;;21.50;99.90;;;;;;4913704;29;20572;-82
2022/09/01 01:11:16;;;;;;;14.13;6.28;;;21.60;99.90;;;;;;4914001;29;20024;-82
2022/09/01 01:14:00;;;;;;;8.43;5.68;;;21.60;99.90;;;;;;4910852;29;20418;-82
2022/09/01 01:16:27;;;;;;;7.57;5.90;;;21.60;99.90;;;;;;4914078;29;20040;-82
2022/09/01 01:18:54;;;;;;;9.90;5.97;;;21.50;99.90;;;;;;4913813;29;20024;-82
2022/09/01 01:24:27;;;;;;;9.80;5.70;;;21.50;99.90;;;;;;4913482;29;20054;-82
2022/09/01 01:26:58;;;;;;;8.18;5.97;;;21.50;99.90;;;;;;4908294;29;20517;-83
2022/09/01 01:29:36;;;;;;;8.35;5.90;;;21.50;99.90;;;;;;4913491;29;20023;-82
2022/09/01 01:32:04;;;;;;;11.57;6.32;;;21.40;99.90;;;;;;4913885;29;20048;-82
2022/09/01 01:34:30;;;;;;;9.68;5.63;;;21.50;99.90;;;;;;4913528;29;20060;-82
2022/09/01 01:36:58;;;;;;;10.07;6.13;;;21.40;99.90;;;;;;4913664;29;20040;-82
2022/09/01 01:39:24;;;;;;;9.75;6.40;;;21.30;99.90;;;;;;4913442;29;20016;-82
2022/09/01 01:41:53;;;;;;;11.82;6.25;;;21.30;99.90;;;;;;4913501;29;20035;-82
2022/09/01 01:44:26;;;;;;;9.80;6.40;;;21.20;99.90;;;;;;4913637;29;20039;-82
2022/09/01 01:46:53;;;;;;;8.60;6.18;;;21.20;99.90;;;;;;4913395;29;20363;-82
2022/09/01 01:49:22;;;;;;;7.05;6.10;;;21.20;99.90;;;;;;4913499;29;20395;-82
2022/09/01 01:51:56;;;;;;;8.40;6.10;;;21.30;99.90;;;;;;4893594;29;20739;-82
2022/09/01 01:54:24;;;;;;;12.30;6.38;;;21.30;99.90;;;;;;4913354;29;20043;-82
2022/09/01 01:56:50;;;;;;;9.73;6.38;;;21.20;99.90;;;;;;4913153;29;20028;-82
2022/09/01 01:59:16;;;;;;;12.15;6.53;;;21.20;99.90;;;;;;4913300;29;20043;-82
2022/09/01 02:01:49;;;;;;;8.77;5.75;;;21.20;99.90;;;;;;4913316;29;20013;-82
2022/09/01 02:04:16;;;;;;;9.45;6.40;;;21.20;99.90;;;;;;4891743;29;20481;-82
2022/09/01 02:06:46;;;;;;;8.50;6.10;;;21.20;99.90;;;;;;4913286;29;20036;-82
2022/09/01 02:09:14;;;;;;;11.23;6.20;;;21.10;99.90;;;;;;4913909;29;20027;-83
2022/09/01 02:11:40;;;;;;;8.85;6.63;;;21.10;99.90;;;;;;4917102;29;20071;-82
2022/09/01 02:14:07;;;;;;;8.52;6.32;;;21.10;99.90;;;;;;4896862;29;20485;-82
2022/09/01 02:16:34;;;;;;;9.20;5.85;;;21.10;99.90;;;;;;4914610;29;20132;-82
2022/09/01 02:19:02;;;;;;;11.95;6.38;;;21.10;99.90;;;;;;4917110;29;20027;-81
2022/09/01 02:21:28;;;;;;;11.65;7.07;;;21.10;99.90;;;;;;4916969;29;20024;-82
2022/09/01 02:24:01;;;;;;;14.13;6.30;;;21.10;99.90;;;;;;4916917;29;20031;-82
2022/09/01 02:26:46;;;;;;;10.05;5.93;;;21.10;99.90;;;;;;4899461;29;20055;-82
2022/09/01 02:29:19;;;;;;;8.75;6.65;;;21.20;99.90;;;;;;4916707;29;20071;-82
2022/09/01 02:31:48;;;;;;;8.20;6.47;;;21.20;99.90;;;;;;4910913;29;20257;-82
2022/09/01 02:34:14;;;;;;;8.98;6.20;;;21.20;99.90;;;;;;4916706;29;20028;-82
2022/09/01 02:36:46;;;;;;;9.15;6.32;;;21.10;99.90;;;;;;4897310;29;20068;-82
2022/09/01 02:39:13;;;;;;;9.70;6.47;;;21.20;99.90;;;;;;4913365;29;20154;-82
2022/09/01 02:41:40;;;;;;;10.88;6.00;;;21.20;99.90;;;;;;4916948;29;20469;-82
2022/09/01 02:44:15;;;;;;;10.93;6.45;;;21.30;99.90;;;;;;4898828;29;20437;-82
2022/09/01 02:46:43;;;;;;;8.82;5.68;;;21.30;99.90;;;;;;4916845;29;20224;-82
2022/09/01 02:49:14;;;;;;;11.07;6.68;;;21.20;99.90;;;;;;4899320;29;20414;-82
2022/09/01 02:51:44;;;;;;;8.93;6.18;;;21.20;99.90;;;;;;4916463;29;20035;-82
2022/09/01 02:54:18;;;;;;;11.60;7.60;;;21.20;99.90;;;;;;4916390;29;20209;-82
2022/09/01 02:56:46;;;;;;;9.35;6.68;;;21.20;99.90;;;;;;4916299;29;20036;-82
2022/09/01 02:59:14;;;;;;;7.13;6.38;;;21.30;99.90;;;;;;4916562;29;20282;-82
2022/09/01 03:01:40;;;;;;;9.50;6.18;;;21.20;99.90;;;;;;4916340;29;20031;-82
2022/09/01 03:04:10;;;;;;;15.57;6.80;;;21.20;99.90;;;;;;4916300;29;20032;-82
2022/09/01 03:06:37;;;;;;;15.82;7.65;;;21.10;99.90;;;;;;4916417;29;20028;-82
2022/09/01 03:09:08;;;;;;;14.48;6.63;;;21.10;99.90;;;;;;4916453;29;20024;-82
2022/09/01 03:11:38;;;;;;;15.23;7.05;;;21.00;99.90;;;;;;4916437;29;20024;-82
2022/09/01 03:14:05;;;;;;;10.23;6.18;;;21.00;99.90;;;;;;4916033;29;20024;-83
2022/09/01 03:16:30;;;;;;;14.20;6.32;;;21.00;99.90;;;;;;4916061;29;20093;-82
2022/09/01 03:18:57;;;;;;;13.13;6.70;;;21.10;99.90;;;;;;4916046;29;20070;-82
2022/09/01 03:21:23;;;;;;;15.05;6.65;;;21.10;99.90;;;;;;4914954;29;20028;-82
2022/09/01 03:23:51;;;;;;;14.20;6.05;;;21.20;99.90;;;;;;4915830;29;20035;-82
2022/09/01 03:26:19;;;;;;;12.25;6.47;;;21.20;99.90;;;;;;4915747;29;20090;-82
2022/09/01 03:28:45;;;;;;;13.50;6.43;;;21.20;99.90;;;;;;4915937;29;20024;-82
2022/09/01 03:31:11;;;;;;;10.05;5.97;;;21.20;99.90;;;;;;4916175;29;20056;-82
2022/09/01 03:33:37;;;;;;;11.52;6.22;;;21.20;99.90;;;;;;4915894;29;20668;-82
2022/09/01 03:36:04;;;;;;;13.38;6.65;;;21.30;99.90;;;;;;4915883;29;20475;-82
2022/09/01 03:38:32;;;;;;;12.48;6.82;;;21.20;99.90;;;;;;4915783;29;20036;-82
2022/09/01 03:41:05;;;;;;;14.63;7.13;;;21.20;99.90;;;;;;4915466;29;20055;-82
2022/09/01 03:43:33;;;;;;;9.60;6.32;;;21.20;99.90;;;;;;4898780;29;20114;-82
2022/09/01 03:45:59;;;;;;;8.90;5.60;;;21.20;99.90;;;;;;4915874;29;20028;-82
2022/09/01 03:48:30;;;;;;;10.35;6.45;;;21.20;99.90;;;;;;4915897;29;20568;-82
2022/09/01 03:51:01;;;;;;;9.90;5.85;;;21.20;99.90;;;;;;4915373;29;20035;-82
2022/09/01 03:53:28;;;;;;;7.93;5.50;;;21.20;99.90;;;;;;4915280;29;20031;-82
2022/09/01 03:55:54;;;;;;;8.25;5.78;;;21.10;99.90;;;;;;4915477;29;20043;-82
2022/09/01 03:58:20;;;;;;;8.43;6.07;;;21.10;99.90;;;;;;4898147;29;20032;-82
2022/09/01 04:00:50;;;;;;;10.98;5.80;;;21.20;99.90;;;;;;4915812;29;20031;-82
2022/09/01 04:03:20;;;;;;;10.60;6.10;;;21.20;99.90;;;;;;4915193;29;20024;-82
2022/09/01 04:05:46;;;;;;;9.80;5.95;;;21.20;99.90;;;;;;4915552;29;20209;-82
2022/09/01 04:08:12;;;;;;;10.40;6.00;;;21.20;99.90;;;;;;4915290;29;20082;-82
2022/09/01 04:10:48;;;;;;;8.98;6.85;;;21.20;99.90;;;;;;4915040;29;20028;-82
2022/09/01 04:13:35;;;;;;;11.60;6.30;;;21.20;99.90;;;;;;4915410;29;20016;-82
2022/09/01 04:16:01;;;;;;;11.43;5.97;;;21.20;99.90;;;;;;4914515;29;20025;-82
2022/09/01 04:18:27;;;;;;;9.70;5.93;;;21.20;99.90;;;;;;4915205;29;20036;-82
2022/09/01 04:20:56;;;;;;;10.93;5.85;;;21.20;99.90;;;;;;4915022;29;20185;-81
2022/09/01 04:23:26;;;;;;;11.80;6.10;;;21.20;99.90;;;;;;4898031;29;20374;-82
2022/09/01 04:25:55;;;;;;;10.38;5.97;;;21.20;99.90;;;;;;4914730;29;20190;-82
2022/09/01 04:28:23;;;;;;;9.48;5.90;;;21.20;99.90;;;;;;4914771;29;20519;-82
2022/09/01 04:30:54;;;;;;;9.88;6.28;;;21.10;99.90;;;;;;4914174;29;20386;-82
2022/09/01 04:33:23;;;;;;;15.57;6.55;;;21.20;99.90;;;;;;4915196;29;20042;-82
2022/09/01 04:35:53;;;;;;;12.50;6.90;;;21.20;99.90;;;;;;4914733;29;20020;-85
2022/09/01 04:38:20;;;;;;;11.82;6.95;;;21.20;99.90;;;;;;4914938;29;20028;-82
2022/09/01 04:40:48;;;;;;;10.40;6.38;;;21.10;99.90;;;;;;4895340;29;20486;-83
2022/09/01 04:43:14;;;;;;;10.23;5.97;;;21.20;99.90;;;;;;4914833;29;20505;-82
2022/09/01 04:45:41;;;;;;;10.88;5.82;;;21.10;99.90;;;;;;4898586;29;20038;-82
2022/09/01 04:48:08;;;;;;;11.32;6.38;;;21.20;99.90;;;;;;4918185;29;20031;-82
2022/09/01 04:50:36;;;;;;;10.63;6.00;;;21.20;99.90;;;;;;4919446;29;20031;-83
2022/09/01 04:53:05;;;;;;;11.38;6.07;;;21.10;99.90;;;;;;4925762;29;20092;-82
2022/09/01 04:55:30;;;;;;;12.13;6.20;;;21.20;99.90;;;;;;4925574;29;20390;-82
2022/09/01 04:57:58;;;;;;;8.15;5.82;;;21.10;99.90;;;;;;4921097;29;20220;-82
2022/09/01 05:00:25;;;;;;;13.93;6.55;;;21.10;99.90;;;;;;4914322;29;20493;-82
2022/09/01 05:03:03;;;;;;;15.30;9.70;;;21.10;99.90;;;;;;4914951;29;20035;-83
2022/09/01 05:05:41;;;;;;;10.70;7.32;;;21.10;99.90;;;;;;4915094;29;20035;-82
2022/09/01 05:08:15;;;;;;;12.60;6.82;;;21.00;99.90;;;;;;4909266;29;20012;-78
2022/09/01 05:10:45;;;;;;;9.73;5.85;;;21.00;99.90;;;;;;4913798;29;20024;-78
2022/09/01 05:13:16;;;;;;;9.90;5.95;;;21.00;99.90;;;;;;4919055;29;20255;-78
2022/09/01 05:15:46;;;;;;;10.50;6.40;;;21.00;99.90;;;;;;4916248;29;20036;-78
2022/09/01 05:18:22;;;;;;;14.02;7.00;;;21.00;99.90;;;;;;4918790;29;20043;-78
2022/09/01 05:20:49;;;;;;;14.68;6.25;;;20.90;99.90;;;;;;4914313;29;20397;-78
2022/09/01 05:23:18;;;;;;;16.23;6.80;;;20.90;99.90;;;;;;4919787;29;20051;-78
2022/09/01 05:25:47;;;;;;;12.98;6.75;;;20.90;99.90;;;;;;4913534;29;20063;-78
2022/09/01 05:28:14;;;;;;;12.60;6.85;;;20.90;99.90;;;;;;4918986;29;20425;-78
2022/09/01 05:30:41;;;;;;;16.10;6.13;;;20.90;99.90;;;;;;4914939;29;20166;-78
2022/09/01 05:33:10;;;;;;;11.57;6.60;;;20.90;99.90;;;;;;4892767;29;20079;-78
2022/09/01 05:35:43;;;;;;;13.20;5.70;;;21.00;99.90;;;;;;4897185;29;20024;-78
2022/09/01 05:38:12;;;;;;;10.17;5.83;;;21.00;99.90;;;;;;4913725;29;20068;-78
2022/09/01 05:40:39;;;;;;;9.60;5.95;;;21.00;99.90;;;;;;4913382;29;20271;-78
2022/09/01 05:43:10;;;;;;;12.35;6.32;;;21.00;99.90;;;;;;4913764;29;20374;-78
2022/09/01 05:45:36;;;;;;;13.77;6.38;;;21.00;99.90;;;;;;4913056;29;20032;-78
2022/09/01 05:48:02;;;;;;;13.45;6.00;;;21.00;99.90;;;;;;4913531;29;20358;-78
2022/09/01 05:50:28;;;;;;;11.82;5.78;;;20.90;99.90;;;;;;4913509;29;20035;-78
2022/09/01 05:52:54;;;;;;;10.85;5.63;;;20.90;99.90;;;;;;4913473;29;20497;-78
2022/09/01 05:55:21;;;;;;;11.48;5.65;;;20.90;99.90;;;;;;4893993;29;20032;-78
2022/09/01 05:57:47;;;;;;;11.60;5.85;;;20.90;99.90;;;;;;4913382;29;20032;-78
2022/09/01 06:00:14;;;;;;;14.40;5.72;;;20.90;99.90;;;;;;4913628;29;20115;-78
2022/09/01 06:02:41;;;;;;;15.70;6.05;;;20.90;99.90;;;;;;4913604;29;20024;-78
2022/09/01 06:05:08;;;;;;;13.88;5.47;;;21.00;99.90;;;;;;4913239;29;20028;-78
2022/09/01 06:07:38;;;;;;;13.82;5.53;;;20.90;99.90;;;;;;4913521;29;20028;-78
2022/09/01 06:10:04;;;;;;;14.70;6.10;;;21.00;99.90;;;;;;4913062;29;20166;-78
2022/09/01 06:12:30;;;;;;;11.98;5.30;;;21.00;99.90;;;;;;4913332;29;20043;-77
2022/09/01 06:14:57;;;;;;;14.10;5.47;;;21.10;99.90;;;;;;4913304;29;20024;-78
2022/09/01 06:17:24;;;;;;;11.82;5.57;;;21.10;99.90;;;;;;4892563;29;20232;-78
2022/09/01 06:19:52;;;;;;;12.45;5.25;;;21.10;99.90;;;;;;4913673;29;20056;-78
2022/09/01 06:22:19;;;;;;;13.30;4.97;;;21.10;99.90;;;;;;4912098;29;20056;-78
2022/09/01 06:24:46;;;;;;;14.40;5.18;;;21.20;99.90;;;;;;4913127;29;20040;-78
2022/09/01 06:27:17;;;;;;;13.18;4.82;;;21.20;99.90;;;;;;4913216;29;20044;-78
2022/09/01 06:29:44;;;;;;;12.63;5.35;;;21.30;99.90;;;;;;4913159;29;20036;-78
2022/09/01 06:32:11;;;;;;;15.13;5.88;;;21.30;99.90;;;;;;4913107;29;20095;-78
2022/09/01 06:34:43;;;;;;;15.43;6.05;;;21.40;99.90;;;;;;4913122;29;20032;-78
2022/09/01 06:37:10;;;;;;;14.32;6.25;;;21.50;99.90;;;;;;4913556;29;20040;-78
2022/09/01 06:39:35;;;;;;;14.82;6.53;;;21.60;99.90;;;;;;4912988;29;20028;-78
2022/09/01 06:42:01;;;;;;;12.25;6.30;;;21.60;99.90;;;;;;4913211;29;20770;-77
2022/09/01 06:44:30;;;;;;;11.93;5.97;;;21.70;99.90;;;;;;4912995;29;20064;-77
2022/09/01 06:46:58;;;;;;;12.75;5.97;;;21.70;99.90;;;;;;4909673;29;20035;-78
2022/09/01 06:49:31;;;;;;;12.55;6.63;;;21.80;99.90;;;;;;4912967;29;20020;-78
2022/09/01 06:52:01;;;;;;;10.05;5.40;;;21.90;99.90;;;;;;4912880;29;20028;-78
2022/09/01 06:54:33;;;;;;;12.00;5.90;;;22.00;99.90;;;;;;4912994;29;20040;-78
2022/09/01 06:57:02;;;;;;;10.07;6.18;;;22.00;99.90;;;;;;4915976;29;20044;-78
2022/09/01 06:59:30;;;;;;;10.90;6.60;;;22.00;99.90;;;;;;4916715;29;20058;-78
2022/09/01 07:01:58;;;;;;;10.25;6.22;;;22.00;99.90;;;;;;4916691;29;20024;-78
2022/09/01 07:04:28;;;;;;;10.43;6.18;;;22.00;99.90;;;;;;4916219;29;20560;-78
2022/09/01 07:06:54;;;;;;;12.18;5.95;;;21.90;99.90;;;;;;4916182;29;20438;-78
2022/09/01 07:09:20;;;;;;;10.55;6.50;;;21.90;99.90;;;;;;4916126;29;20060;-78
2022/09/01 07:11:46;;;;;;;9.15;5.88;;;21.90;99.90;;;;;;4916286;29;20032;-78
2022/09/01 07:14:14;;;;;;;12.80;6.82;;;21.80;99.90;;;;;;4916440;29;20047;-78
2022/09/01 07:16:42;;;;;;;10.15;6.85;;;21.80;99.90;;;;;;4916077;29;20028;-78
2022/09/01 07:19:13;;;;;;;9.75;6.65;;;21.80;99.90;;;;;;4916086;29;20572;-78
2022/09/01 07:21:41;;;;;;;14.63;6.38;;;21.70;99.90;;;;;;4916267;29;20025;-77
2022/09/01 07:24:07;;;;;;;12.65;6.60;;;21.70;99.90;;;;;;4916009;29;20056;-78
2022/09/01 07:26:34;;;;;;;11.85;6.93;;;21.70;99.90;;;;;;4915819;29;20047;-78
2022/09/01 07:29:04;;;;;;;12.35;7.03;;;21.70;99.90;;;;;;4915706;29;20052;-78
2022/09/01 07:31:35;;;;;;;13.55;7.25;;;21.70;99.90;;;;;;4915930;29;20024;-78
2022/09/01 07:34:04;;;;;;;12.38;7.03;;;21.60;99.90;;;;;;4916057;29;20032;-78
2022/09/01 07:36:30;;;;;;;13.10;6.13;;;21.60;99.90;;;;;;4915829;29;20081;-78
2022/09/01 07:38:56;;;;;;;11.00;6.10;;;21.60;99.90;;;;;;4915598;29;20038;-78
2022/09/01 07:41:24;;;;;;;10.50;6.57;;;21.70;99.90;;;;;;4915940;29;20028;-78
2022/09/01 07:43:51;;;;;;;13.80;6.43;;;21.80;99.90;;;;;;4915682;29;20028;-78
2022/09/01 07:46:18;;;;;;;10.15;5.93;;;21.80;99.90;;;;;;4915340;29;20032;-78
2022/09/01 07:48:45;;;;;;;10.18;5.93;;;22.00;99.90;;;;;;4915450;29;20523;-79
2022/09/01 07:51:12;;;;;;;10.75;5.90;;;22.10;99.90;;;;;;4915401;29;20528;-79
2022/09/01 07:53:38;;;;;;;11.88;5.88;;;22.10;99.90;;;;;;4915276;29;20165;-78
2022/09/01 07:56:09;;;;;;;12.73;5.35;;;22.10;99.90;;;;;;4915458;29;20173;-78
2022/09/01 07:58:37;;;;;;;10.27;4.57;;;22.10;99.90;;;;;;4915665;29;20035;-79
2022/09/01 08:01:12;;;;;;;9.82;5.18;;;22.20;99.90;;;;;;4915342;29;20020;-78
2022/09/01 08:03:39;;;;;;;8.15;4.95;;;22.40;99.90;;;;;;4913913;29;20035;-78
2022/09/01 08:06:07;;;;;;;12.65;4.32;;;22.50;99.90;;;;;;4915247;29;20076;-78
2022/09/01 08:08:34;;;;;;;11.35;4.88;;;22.60;99.90;;;;;;4892598;29;20031;-78
2022/09/01 08:11:00;;;;;;;12.85;4.75;;;22.70;99.90;;;;;;4914721;29;20117;-78
2022/09/01 08:13:26;;;;;;;8.45;4.47;;;22.70;99.90;;;;;;4915071;29;20114;-78
2022/09/01 08:15:52;;;;;;;9.88;4.82;;;22.80;99.90;;;;;;4914968;29;20020;-78
2022/09/01 08:18:18;;;;;;;9.82;4.20;;;22.80;99.90;;;;;;4915090;29;20183;-78
2022/09/01 08:20:46;;;;;;;9.32;4.60;;;22.90;99.90;;;;;;4915008;29;20016;-78
2022/09/01 08:23:14;;;;;;;8.30;4.25;;;22.90;99.90;;;;;;4915006;29;20051;-78
2022/09/01 08:25:42;;;;;;;10.82;4.15;;;22.80;99.90;;;;;;4897272;29;20068;-78
2022/09/01 08:28:09;;;;;;;8.10;4.00;;;22.90;99.90;;;;;;4914899;29;20036;-78
2022/09/01 08:30:40;;;;;;;10.27;4.10;;;23.10;99.90;;;;;;4914817;29;20500;-77
2022/09/01 08:33:09;;;;;;;9.73;4.15;;;23.10;99.90;;;;;;4897591;29;20103;-80
2022/09/01 08:35:38;;;;;;;7.35;4.38;;;23.20;99.90;;;;;;4914430;29;20028;-80
2022/09/01 08:38:03;;;;;;;8.70;4.10;;;23.30;99.90;;;;;;4914565;29;20028;-80
2022/09/01 08:40:29;;;;;;;9.15;4.90;;;23.30;99.90;;;;;;4914637;29;20029;-80
2022/09/01 08:43:37;;;;;;;8.48;4.40;;;23.30;99.90;;;;;;4914483;29;20103;-80
2022/09/01 08:46:15;;;;;;;7.97;3.85;;;23.40;99.90;;;;;;4914276;29;20028;-80
2022/09/01 08:48:50;;;;;;;7.50;4.00;;;23.50;99.90;;;;;;4914732;29;20450;-80
2022/09/01 08:51:34;;;;;;;8.48;4.03;;;23.60;99.90;;;;;;4914444;29;20036;-80
2022/09/01 08:53:59;;;;;;;7.80;4.30;;;23.60;99.90;;;;;;4913950;29;20501;-80
2022/09/01 08:56:25;;;;;;;6.25;4.07;;;23.60;99.90;;;;;;4913973;29;20032;-80
2022/09/01 08:58:51;;;;;;;7.22;3.88;;;23.60;99.90;;;;;;4914156;29;20655;-80
2022/09/01 09:01:30;;;;;;;7.07;3.70;;;23.70;99.90;;;;;;4914447;29;20237;-80
2022/09/01 09:04:14;;;;;;;9.75;4.25;;;23.80;99.90;;;;;;4914419;29;20298;-78
2022/09/01 09:07:01;;;;;;;12.55;3.90;;;23.90;99.90;;;;;;4910157;29;20508;-78
2022/09/01 09:09:49;;;;;;;7.03;3.78;;;24.10;99.90;;;;;;4914019;29;20087;-77
2022/09/01 09:12:50;;;;;;;8.32;3.55;;;23.90;99.90;;;;;;4913656;29;20021;-77
2022/09/01 09:15:38;;;;;;;6.00;3.50;;;23.90;99.90;;;;;;4913968;29;20046;-77
2022/09/01 09:18:36;;;;;;;10.18;3.65;;;23.80;99.90;;;;;;4908932;29;20088;-78
2022/09/01 09:21:18;;;;;;;10.95;3.65;;;23.80;99.90;;;;;;4906953;29;20034;-78
2022/09/01 09:23:49;;;;;;;8.20;3.72;;;23.80;99.90;;;;;;4913625;29;20079;-78
2022/09/01 09:26:16;;;;;;;6.45;3.95;;;23.90;99.90;;;;;;4913689;29;20040;-78
2022/09/01 09:28:42;;;;;;;7.32;3.30;;;24.10;99.90;;;;;;4914025;29;20036;-77
2022/09/01 09:31:47;;;;;;;5.97;3.80;;;24.20;99.90;;;;;;4913748;29;20484;-77
2022/09/01 09:34:40;;;;;;;7.85;3.60;;;24.20;99.90;;;;;;4818136;29;20102;-78
2022/09/01 09:37:27;;;;;;;4.95;3.42;;;24.30;99.90;;;;;;4907421;29;20198;-78
2022/09/01 09:40:15;;;;;;;6.45;3.40;;;24.30;99.90;;;;;;4912106;29;20107;-78
2022/09/01 09:43:00;;;;;;;9.48;3.90;;;24.40;99.90;;;;;;4913475;29;20016;-78
2022/09/01 09:45:32;;;;;;;7.97;5.05;;;24.40;99.90;;;;;;4913768;29;20040;-77
2022/09/01 09:47:58;;;;;;;13.00;5.60;;;24.40;99.90;;;;;;4913550;29;20489;-78
2022/09/01 09:50:24;;;;;;;8.15;4.97;;;24.50;99.90;;;;;;4913669;29;20030;-78
2022/09/01 09:52:51;;;;;;;10.48;5.35;;;24.40;99.90;;;;;;4913505;29;20035;-78
2022/09/01 09:55:29;;;;;;;8.98;5.65;;;24.60;99.90;;;;;;4913125;29;20079;-78
2022/09/01 09:58:07;;;;;;;11.10;5.72;;;24.60;99.90;;;;;;4913317;29;20040;-78
2022/09/01 10:00:34;;;;;;;8.65;5.55;;;24.70;99.90;;;;;;4913456;29;20029;-78
2022/09/01 10:03:03;;;;;;;9.98;5.40;;;24.70;99.90;;;;;;4913754;29;20020;-77
2022/09/01 10:05:50;;;;;;;12.80;5.88;;;24.70;99.90;;;;;;4913206;29;20489;-77
2022/09/01 10:08:35;;;;;;;7.82;5.32;;;24.70;99.90;;;;;;4908869;29;20028;-78
2022/09/01 10:11:03;;;;;;;9.00;6.32;;;24.80;99.90;;;;;;4896245;29;20036;-78
2022/09/01 10:13:31;;;;;;;8.95;6.05;;;24.80;99.90;;;;;;4912986;29;20028;-77
2022/09/01 10:16:08;;;;;;;12.43;6.65;;;25.00;99.90;;;;;;4913027;29;20032;-77
2022/09/01 10:18:43;;;;;;;9.48;6.13;;;25.10;99.90;;;;;;4896069;29;20040;-77
2022/09/01 10:21:17;;;;;;;11.65;5.75;;;25.10;99.90;;;;;;4913224;29;20076;-77
2022/09/01 10:23:43;;;;;;;10.13;5.72;;;25.20;99.90;;;;;;4908209;29;20035;-78
2022/09/01 10:26:23;;;;;;;9.73;5.80;;;25.50;99.90;;;;;;4912990;29;20397;-78
2022/09/01 10:29:01;;;;;;;11.98;6.32;;;25.50;99.90;;;;;;4908647;29;20040;-77
2022/09/01 10:31:28;;;;;;;10.60;4.93;;;25.20;99.90;;;;;;4915722;29;20441;-77
2022/09/01 10:33:55;;;;;;;13.25;5.80;;;25.20;99.90;;;;;;4917135;29;20112;-77
2022/09/01 10:36:21;;;;;;;9.60;5.82;;;25.30;99.90;;;;;;4917002;29;20044;-78
2022/09/01 10:38:48;;;;;;;11.98;5.53;;;25.50;99.90;;;;;;4916500;29;20035;-80
2022/09/01 10:41:42;;;;;;;10.35;4.80;;;25.50;99.90;;;;;;4916845;29;20036;-80
2022/09/01 10:44:20;;;;;;;9.55;4.57;;;25.60;99.90;;;;;;4916754;29;20043;-80
2022/09/01 10:46:46;;;;;;;8.93;4.78;;;25.60;99.90;;;;;;4915328;29;20028;-80
2022/09/01 10:49:37;;;;;;;6.28;4.25;;;25.60;99.90;;;;;;4916624;29;20069;-80
2022/09/01 10:52:03;;;;;;;8.25;3.97;;;25.70;99.90;;;;;;4915904;29;20539;-80
2022/09/01 10:54:38;;;;;;;7.60;4.60;;;25.90;99.90;;;;;;4916433;29;20028;-80
2022/09/01 10:57:20;;;;;;;9.25;4.10;;;25.90;99.90;;;;;;4916593;29;20251;-80
2022/09/01 10:59:46;;;;;;;8.30;3.85;;;25.80;99.90;;;;;;4916456;29;20111;-80
2022/09/01 11:02:18;;;;;;;5.45;3.53;;;25.90;99.90;;;;;;4916385;29;20103;-80
2022/09/01 11:04:46;;;;;;;7.10;3.95;;;25.90;99.90;;;;;;4916222;29;20040;-80
2022/09/01 11:07:18;;;;;;;13.52;4.30;;;25.90;99.90;;;;;;4916367;29;20131;-80
2022/09/01 11:10:18;;;;;;;8.70;3.58;;;26.00;99.90;;;;;;4910262;29;20083;-80
2022/09/01 11:13:09;;;;;;;4.72;3.20;;;26.20;99.90;;;;;;4914521;29;20020;-80
2022/09/01 11:15:39;;;;;;;7.32;3.88;;;26.30;99.90;;;;;;4915852;29;20547;-80
2022/09/01 11:18:14;;;;;;;7.13;4.18;;;26.50;99.90;;;;;;4915947;29;20512;-80
2022/09/01 11:20:43;;;;;;;7.03;3.25;;;26.50;99.90;;;;;;4915761;29;20020;-80
2022/09/01 11:23:21;;;;;;;8.70;4.00;;;26.50;99.90;;;;;;4916193;29;20157;-80
2022/09/01 11:25:55;;;;;;;9.40;3.95;;;26.70;99.90;;;;;;4915607;29;20078;-80
2022/09/01 11:28:23;;;;;;;7.78;3.60;;;26.70;99.90;;;;;;4915922;29;20035;-80
2022/09/01 11:30:59;;;;;;;6.75;3.63;;;26.50;99.90;;;;;;4915699;29;20493;-80
2022/09/01 11:34:14;;;;;;;7.30;3.70;;;26.40;99.90;;;;;;4915832;29;20055;-78
2022/09/01 11:37:00;;;;;;;7.80;3.45;;;26.40;99.90;;;;;;4820063;29;20038;-77
2022/09/01 11:39:38;;;;;;;7.20;3.60;;;26.30;99.90;;;;;;4819611;29;20049;-78
2022/09/01 11:42:24;;;;;;;6.80;3.47;;;26.30;99.90;;;;;;4888078;29;20540;-78
2022/09/01 11:45:01;;;;;;;6.72;3.80;;;26.50;99.90;;;;;;4913920;29;20033;-77
2022/09/01 11:47:32;;;;;;;6.00;3.20;;;26.40;99.90;;;;;;4915736;29;20149;-78
2022/09/01 11:50:03;;;;;;;4.68;3.35;;;26.40;99.90;;;;;;4915501;29;20024;-78
2022/09/01 11:52:34;;;;;;;8.32;3.28;;;26.60;99.90;;;;;;4908167;29;20532;-78
2022/09/01 11:55:01;;;;;;;7.13;3.28;;;26.70;99.90;;;;;;4912015;29;20024;-78
2022/09/01 11:57:32;;;;;;;6.97;3.65;;;26.80;99.90;;;;;;4915288;29;20048;-78
2022/09/01 12:00:02;;;;;;;6.70;3.15;;;26.70;99.90;;;;;;4915082;29;20028;-78
2022/09/01 12:02:34;;;;;;;6.68;3.58;;;26.70;99.90;;;;;;4915308;29;20032;-77
2022/09/01 12:05:26;;;;;;;8.52;3.35;;;26.80;99.90;;;;;;4915103;29;20016;-78
2022/09/01 12:07:52;;;;;;;8.25;3.40;;;26.60;99.90;;;;;;4893116;29;20031;-78
2022/09/01 12:10:26;;;;;;;7.18;3.05;;;26.60;99.90;;;;;;4914988;29;20028;-78
2022/09/01 12:13:19;;;;;;;6.25;3.17;;;26.70;99.90;;;;;;4915359;29;20028;-78
2022/09/01 12:15:54;;;;;;;7.13;3.25;;;26.80;99.90;;;;;;4901272;29;20028;-78
2022/09/01 12:18:21;;;;;;;5.05;3.22;;;27.00;99.90;;;;;;4914874;29;20071;-78
2022/09/01 12:20:49;;;;;;;5.95;3.08;;;27.30;99.90;;;;;;4914751;29;20028;-78
2022/09/01 12:23:30;;;;;;;8.40;3.70;;;27.50;99.90;;;;;;4915163;29;20036;-78
2022/09/01 12:25:59;;;;;;;6.90;3.25;;;27.60;99.90;;;;;;4914810;29;20482;-78
2022/09/01 12:28:32;;;;;;;5.43;3.03;;;27.50;99.90;;;;;;4914960;29;20035;-78
2022/09/01 12:31:11;;;;;;;10.02;3.33;;;27.70;99.90;;;;;;4914528;29;20517;-78
2022/09/01 12:33:37;;;;;;;7.43;3.45;;;27.60;99.90;;;;;;4909165;29;20017;-78
2022/09/01 12:36:41;;;;;;;6.38;2.80;;;27.40;99.90;;;;;;4914603;29;20034;-78
2022/09/01 12:39:16;;;;;;;6.07;2.95;;;27.50;99.90;;;;;;4853938;29;20507;-78
2022/09/01 12:41:44;;;;;;;6.00;2.92;;;27.50;99.90;;;;;;4840033;29;20461;-78
2022/09/01 12:44:37;;;;;;;6.32;3.35;;;27.60;99.90;;;;;;4870814;29;20075;-78
2022/09/01 12:47:10;;;;;;;6.13;3.10;;;27.30;99.90;;;;;;4909630;29;20475;-78
2022/09/01 12:49:35;;;;;;;9.55;3.40;;;27.50;99.90;;;;;;4914526;29;20489;-78
2022/09/01 12:52:20;;;;;;;6.97;3.10;;;27.80;99.90;;;;;;4914083;29;20088;-80
2022/09/01 12:54:49;;;;;;;5.57;3.08;;;27.80;99.90;;;;;;4913915;29;20028;-81
2022/09/01 12:57:50;;;;;;;6.57;3.17;;;27.80;99.90;;;;;;4917328;29;20043;-81
2022/09/01 13:00:22;;;;;;;5.40;2.60;;;27.90;99.90;;;;;;4862759;29;20076;-81
2022/09/01 13:03:16;;;;;;;6.80;3.05;;;28.10;98.50;;;;;;4913667;29;20056;-81
2022/09/01 13:05:53;;;;;;;5.85;2.42;;;28.30;98.60;;;;;;4907190;29;20032;-81